Strona główna
METAR-TAF:

METAR-TAF

Lotnisko :

Port lotniczy Skyros

Skyros, Grecja

Szerokość geograficzna: 38-58-03N, Długość geograficzna: 024-29-14E, wysokość: 13 m

METAR: brakujący

czas: 01:14 (23:14 UTC)

Prognoza

Raport powstał 3 godziny i 14 minut temu, godzina 20:00 UTC
Prognoza ważna od 17 godzina 21 UTC do 18 godzina 06 UTC
Wiatr 18 kt od północno-północny wschód w porywach dochodzący do 30 kt
Widzialność 10 km lub więcej
Mało chmury na wysokości 1500 ft
Przerywane chmury na wysokości 2000 ft
Prawdopodobieństwo 30% :
Przejściowo
od 17 godzina 21 UTC do 18 godzina 06 UTC
Widzialność: 8000 m
deszcz

TAF: LGSY 172000Z 1721/1806 03018G30KT 9999 FEW015 BKN020 PROB30 TEMPO 1721/1806 8000 RA

Obserwacja i prognoza pogody dla ponad 4000 lotnisk (raport METAR i TAF).

Dostępne stacje oznaczono żółtymi i czerwonymi punktami na mapie.

Najedź kursorem aby zobaczyć nazwę stacji.

Kliknij aby zobaczyć obserwacje i prognozy pogody.

Aby zmienić mapę: kliknij na zielony przycisk z czarnym krzyżykiem, aby powiększyć; na zielony przycisk z myślnikiem, aby pomniejszyć; na zielone strzałki, aby przejść do map sąsiednich.


METAR-TAF: